sensor_id;sensor_type;location;lat;lon;timestamp;pressure;altitude;pressure_sealevel;temperature;humidity
24083;BME280;12267;52.798;18.280;2022-10-13T00:01:44;101740.63;;;6.67;100.00
24083;BME280;12267;52.798;18.280;2022-10-13T00:04:10;101746.84;;;6.66;100.00
24083;BME280;12267;52.798;18.280;2022-10-13T00:06:36;101740.75;;;6.64;100.00
24083;BME280;12267;52.798;18.280;2022-10-13T00:09:02;101737.31;;;6.62;100.00
24083;BME280;12267;52.798;18.280;2022-10-13T00:11:29;101740.81;;;6.62;100.00
24083;BME280;12267;52.798;18.280;2022-10-13T00:13:58;101729.53;;;6.59;100.00
24083;BME280;12267;52.798;18.280;2022-10-13T00:16:28;101726.97;;;6.57;100.00
24083;BME280;12267;52.798;18.280;2022-10-13T00:18:55;101727.09;;;6.54;100.00
24083;BME280;12267;52.798;18.280;2022-10-13T00:21:23;101724.44;;;6.54;100.00
24083;BME280;12267;52.798;18.280;2022-10-13T00:23:52;101725.56;;;6.50;100.00
24083;BME280;12267;52.798;18.280;2022-10-13T00:26:21;101723.81;;;6.49;100.00
24083;BME280;12267;52.798;18.280;2022-10-13T00:28:51;101719.56;;;6.47;100.00
24083;BME280;12267;52.798;18.280;2022-10-13T00:31:23;101709.03;;;6.45;100.00
24083;BME280;12267;52.798;18.280;2022-10-13T00:33:49;101717.03;;;6.44;100.00
24083;BME280;12267;52.798;18.280;2022-10-13T00:36:18;101715.34;;;6.43;100.00
24083;BME280;12267;52.798;18.280;2022-10-13T00:38:46;101710.97;;;6.42;100.00
24083;BME280;12267;52.798;18.280;2022-10-13T00:41:12;101714.53;;;6.41;100.00
24083;BME280;12267;52.798;18.280;2022-10-13T00:43:59;101720.69;;;6.41;100.00
24083;BME280;12267;52.798;18.280;2022-10-13T00:46:31;101726.91;;;6.40;100.00
24083;BME280;12267;52.798;18.280;2022-10-13T00:49:03;101722.47;;;6.41;100.00
24083;BME280;12267;52.798;18.280;2022-10-13T00:51:33;101716.41;;;6.39;100.00
24083;BME280;12267;52.798;18.280;2022-10-13T00:54:05;101711.97;;;6.39;100.00
24083;BME280;12267;52.798;18.280;2022-10-13T00:56:32;101711.25;;;6.35;100.00
24083;BME280;12267;52.798;18.280;2022-10-13T00:59:00;101711.25;;;6.35;100.00
24083;BME280;12267;52.798;18.280;2022-10-13T01:01:28;101713.06;;;6.35;100.00
24083;BME280;12267;52.798;18.280;2022-10-13T01:03:54;101705.97;;;6.35;100.00
24083;BME280;12267;52.798;18.280;2022-10-13T01:06:20;101702.53;;;6.33;100.00
24083;BME280;12267;52.798;18.280;2022-10-13T01:08:46;101695.66;;;6.29;100.00
24083;BME280;12267;52.798;18.280;2022-10-13T01:17:30;101692.09;;;6.30;100.00
24083;BME280;12267;52.798;18.280;2022-10-13T01:20:13;101678.06;;;6.28;100.00
24083;BME280;12267;52.798;18.280;2022-10-13T01:34:13;101675.78;;;6.21;100.00
24083;BME280;12267;52.798;18.280;2022-10-13T01:39:26;101674.22;;;6.17;100.00
24083;BME280;12267;52.798;18.280;2022-10-13T01:42:01;101663.72;;;6.15;100.00
24083;BME280;12267;52.798;18.280;2022-10-13T01:44:40;101668.13;;;6.15;100.00
24083;BME280;12267;52.798;18.280;2022-10-13T01:47:10;101663.78;;;6.14;100.00
24083;BME280;12267;52.798;18.280;2022-10-13T01:49:41;101662.09;;;6.13;100.00
24083;BME280;12267;52.798;18.280;2022-10-13T01:52:11;101667.50;;;6.10;100.00
24083;BME280;12267;52.798;18.280;2022-10-13T01:54:40;101674.59;;;6.09;100.00
24083;BME280;12267;52.798;18.280;2022-10-13T01:57:28;101660.66;;;6.06;100.00
24083;BME280;12267;52.798;18.280;2022-10-13T01:59:57;101662.50;;;6.04;100.00
24083;BME280;12267;52.798;18.280;2022-10-13T02:09:02;101664.50;;;5.99;100.00
24083;BME280;12267;52.798;18.280;2022-10-13T02:11:31;101659.34;;;5.96;100.00
24083;BME280;12267;52.798;18.280;2022-10-13T02:16:27;101649.06;;;5.90;100.00
24083;BME280;12267;52.798;18.280;2022-10-13T02:18:56;101649.22;;;5.86;100.00
24083;BME280;12267;52.798;18.280;2022-10-13T02:21:23;101658.03;;;5.85;100.00
24083;BME280;12267;52.798;18.280;2022-10-13T02:23:50;101654.63;;;5.83;100.00
24083;BME280;12267;52.798;18.280;2022-10-13T02:26:19;101656.47;;;5.81;100.00
24083;BME280;12267;52.798;18.280;2022-10-13T02:28:50;101659.09;;;5.81;100.00
24083;BME280;12267;52.798;18.280;2022-10-13T02:31:16;101660.03;;;5.80;100.00
24083;BME280;12267;52.798;18.280;2022-10-13T02:33:42;101654.75;;;5.80;100.00
24083;BME280;12267;52.798;18.280;2022-10-13T02:36:08;101638.09;;;5.78;100.00
24083;BME280;12267;52.798;18.280;2022-10-13T02:38:34;101654.75;;;5.80;100.00
24083;BME280;12267;52.798;18.280;2022-10-13T02:41:01;101648.72;;;5.77;100.00
24083;BME280;12267;52.798;18.280;2022-10-13T02:43:30;101647.97;;;5.75;100.00
24083;BME280;12267;52.798;18.280;2022-10-13T02:45:58;101649.75;;;5.74;100.00
24083;BME280;12267;52.798;18.280;2022-10-13T02:48:24;101653.31;;;5.73;100.00
24083;BME280;12267;52.798;18.280;2022-10-13T02:50:50;101651.63;;;5.72;100.00
24083;BME280;12267;52.798;18.280;2022-10-13T02:53:17;101650.75;;;5.72;100.00
24083;BME280;12267;52.798;18.280;2022-10-13T02:55:43;101641.16;;;5.69;100.00
24083;BME280;12267;52.798;18.280;2022-10-13T02:58:09;101638.59;;;5.68;100.00
24083;BME280;12267;52.798;18.280;2022-10-13T03:00:35;101639.47;;;5.68;100.00
24083;BME280;12267;52.798;18.280;2022-10-13T03:03:04;101631.69;;;5.65;100.00
24083;BME280;12267;52.798;18.280;2022-10-13T03:05:31;101632.59;;;5.64;100.00
24083;BME280;12267;52.798;18.280;2022-10-13T03:07:57;101634.44;;;5.62;100.00
24083;BME280;12267;52.798;18.280;2022-10-13T03:10:24;101626.66;;;5.59;100.00
24083;BME280;12267;52.798;18.280;2022-10-13T03:12:54;101631.94;;;5.59;100.00
24083;BME280;12267;52.798;18.280;2022-10-13T03:15:20;101632.09;;;5.56;100.00
24083;BME280;12267;52.798;18.280;2022-10-13T03:17:48;101638.22;;;5.57;100.00
24083;BME280;12267;52.798;18.280;2022-10-13T03:20:14;101631.31;;;5.54;100.00
24083;BME280;12267;52.798;18.280;2022-10-13T03:22:40;101630.50;;;5.52;100.00
24083;BME280;12267;52.798;18.280;2022-10-13T03:25:07;101620.00;;;5.51;100.00
24083;BME280;12267;52.798;18.280;2022-10-13T03:27:33;101621.88;;;5.49;100.00
24083;BME280;12267;52.798;18.280;2022-10-13T03:29:59;101622.88;;;5.46;100.00
24083;BME280;12267;52.798;18.280;2022-10-13T03:32:25;101616.72;;;5.46;100.00
24083;BME280;12267;52.798;18.280;2022-10-13T03:34:51;101613.38;;;5.42;100.00
24083;BME280;12267;52.798;18.280;2022-10-13T03:37:17;101621.28;;;5.42;100.00
24083;BME280;12267;52.798;18.280;2022-10-13T03:39:44;101632.78;;;5.41;100.00
24083;BME280;12267;52.798;18.280;2022-10-13T03:42:11;101622.34;;;5.38;100.00
24083;BME280;12267;52.798;18.280;2022-10-13T03:44:38;101626.81;;;5.36;100.00
24083;BME280;12267;52.798;18.280;2022-10-13T03:47:04;101625.28;;;5.32;100.00
24083;BME280;12267;52.798;18.280;2022-10-13T03:49:30;101619.13;;;5.31;100.00
24083;BME280;12267;52.798;18.280;2022-10-13T03:51:56;101616.59;;;5.28;100.00
24083;BME280;12267;52.798;18.280;2022-10-13T03:54:23;101634.28;;;5.28;100.00
24083;BME280;12267;52.798;18.280;2022-10-13T03:56:52;101620.25;;;5.26;100.00
24083;BME280;12267;52.798;18.280;2022-10-13T03:59:18;101618.47;;;5.26;100.00
24083;BME280;12267;52.798;18.280;2022-10-13T04:01:46;101626.53;;;5.23;100.00
24083;BME280;12267;52.798;18.280;2022-10-13T04:04:12;101624.75;;;5.24;100.00
24083;BME280;12267;52.798;18.280;2022-10-13T04:06:40;101618.81;;;5.19;100.00
24083;BME280;12267;52.798;18.280;2022-10-13T04:09:07;101628.50;;;5.18;100.00
24083;BME280;12267;52.798;18.280;2022-10-13T04:11:34;101615.44;;;5.15;100.00
24083;BME280;12267;52.798;18.280;2022-10-13T04:14:01;101620.78;;;5.14;100.00
24083;BME280;12267;52.798;18.280;2022-10-13T04:16:29;101613.94;;;5.10;100.00
24083;BME280;12267;52.798;18.280;2022-10-13T04:19:01;101613.09;;;5.09;100.00
24083;BME280;12267;52.798;18.280;2022-10-13T04:21:31;101608.78;;;5.07;100.00
24083;BME280;12267;52.798;18.280;2022-10-13T04:23:59;101615.06;;;5.04;100.00
24083;BME280;12267;52.798;18.280;2022-10-13T04:26:29;101615.19;;;5.01;100.00
24083;BME280;12267;52.798;18.280;2022-10-13T04:28:57;101614.34;;;5.01;100.00
24083;BME280;12267;52.798;18.280;2022-10-13T04:31:24;101610.97;;;4.97;100.00
24083;BME280;12267;52.798;18.280;2022-10-13T04:33:50;101619.75;;;4.98;100.00
24083;BME280;12267;52.798;18.280;2022-10-13T04:36:17;101620.75;;;4.95;100.00
24083;BME280;12267;52.798;18.280;2022-10-13T04:38:45;101611.16;;;4.93;100.00
24083;BME280;12267;52.798;18.280;2022-10-13T04:41:13;101617.31;;;4.93;100.00
24083;BME280;12267;52.798;18.280;2022-10-13T04:43:40;101598.97;;;4.90;100.00
24083;BME280;12267;52.798;18.280;2022-10-13T04:46:10;101602.63;;;4.87;100.00
24083;BME280;12267;52.798;18.280;2022-10-13T04:48:37;101602.66;;;4.86;100.00
24083;BME280;12267;52.798;18.280;2022-10-13T04:51:11;101600.03;;;4.86;100.00
24083;BME280;12267;52.798;18.280;2022-10-13T04:53:37;101606.31;;;4.83;100.00
24083;BME280;12267;52.798;18.280;2022-10-13T04:56:11;101600.88;;;4.86;100.00
24083;BME280;12267;52.798;18.280;2022-10-13T04:58:38;101606.22;;;4.85;100.00
24083;BME280;12267;52.798;18.280;2022-10-13T05:01:06;101609.72;;;4.85;100.00
24083;BME280;12267;52.798;18.280;2022-10-13T05:03:34;101607.06;;;4.85;100.00
24083;BME280;12267;52.798;18.280;2022-10-13T05:06:00;101605.31;;;4.86;100.00
24083;BME280;12267;52.798;18.280;2022-10-13T05:08:26;101607.88;;;4.87;100.00
24083;BME280;12267;52.798;18.280;2022-10-13T05:11:02;101610.53;;;4.87;100.00
24083;BME280;12267;52.798;18.280;2022-10-13T05:13:29;101607.88;;;4.87;100.00
24083;BME280;12267;52.798;18.280;2022-10-13T05:15:56;101614.88;;;4.88;100.00
24083;BME280;12267;52.798;18.280;2022-10-13T05:18:22;101606.03;;;4.89;100.00
24083;BME280;12267;52.798;18.280;2022-10-13T05:20:49;101607.66;;;4.92;100.00
24083;BME280;12267;52.798;18.280;2022-10-13T05:23:15;101614.63;;;4.95;100.00
24083;BME280;12267;52.798;18.280;2022-10-13T05:25:41;101611.69;;;5.01;100.00
24083;BME280;12267;52.798;18.280;2022-10-13T05:28:12;101615.66;;;5.11;100.00
24083;BME280;12267;52.798;18.280;2022-10-13T05:30:38;101613.38;;;5.22;100.00
24083;BME280;12267;52.798;18.280;2022-10-13T05:33:04;101620.72;;;5.35;100.00
24083;BME280;12267;52.798;18.280;2022-10-13T05:35:30;101616.53;;;5.50;100.00
24083;BME280;12267;52.798;18.280;2022-10-13T05:37:57;101611.34;;;5.66;100.00
24083;BME280;12267;52.798;18.280;2022-10-13T05:40:23;101601.84;;;5.80;100.00
24083;BME280;12267;52.798;18.280;2022-10-13T05:42:55;101596.47;;;6.02;100.00
24083;BME280;12267;52.798;18.280;2022-10-13T05:45:22;101591.09;;;6.21;100.00
24083;BME280;12267;52.798;18.280;2022-10-13T05:47:50;101586.56;;;6.42;100.00
24083;BME280;12267;52.798;18.280;2022-10-13T05:50:16;101581.91;;;6.64;100.00
24083;BME280;12267;52.798;18.280;2022-10-13T05:52:44;101580.88;;;6.83;100.00
24083;BME280;12267;52.798;18.280;2022-10-13T05:55:14;101577.09;;;7.05;100.00
24083;BME280;12267;52.798;18.280;2022-10-13T05:57:47;101571.41;;;7.28;100.00
24083;BME280;12267;52.798;18.280;2022-10-13T06:00:17;101571.97;;;7.50;98.43
24083;BME280;12267;52.798;18.280;2022-10-13T06:02:48;101571.56;;;7.73;96.29
24083;BME280;12267;52.798;18.280;2022-10-13T06:05:18;101551.88;;;7.93;95.42
24083;BME280;12267;52.798;18.280;2022-10-13T06:07:49;101557.56;;;8.17;94.20
24083;BME280;12267;52.798;18.280;2022-10-13T06:10:15;101549.28;;;8.39;93.21
24083;BME280;12267;52.798;18.280;2022-10-13T06:12:43;101549.78;;;8.59;91.46
24083;BME280;12267;52.798;18.280;2022-10-13T06:15:10;101549.63;;;8.76;89.84
24083;BME280;12267;52.798;18.280;2022-10-13T06:17:37;101551.94;;;8.97;90.01
24083;BME280;12267;52.798;18.280;2022-10-13T06:20:05;101555.09;;;9.17;89.59
24083;BME280;12267;52.798;18.280;2022-10-13T06:22:33;101549.47;;;9.36;88.33
24083;BME280;12267;52.798;18.280;2022-10-13T06:24:59;101551.09;;;9.53;86.85
24083;BME280;12267;52.798;18.280;2022-10-13T06:27:26;101552.66;;;9.69;86.15
24083;BME280;12267;52.798;18.280;2022-10-13T06:29:52;101546.25;;;9.86;86.08
24083;BME280;12267;52.798;18.280;2022-10-13T06:32:20;101542.28;;;10.06;85.50
24083;BME280;12267;52.798;18.280;2022-10-13T06:34:47;101560.72;;;10.23;85.54
24083;BME280;12267;52.798;18.280;2022-10-13T06:37:13;101554.16;;;10.41;84.43
24083;BME280;12267;52.798;18.280;2022-10-13T06:39:40;101546.72;;;10.59;84.16
24083;BME280;12267;52.798;18.280;2022-10-13T06:42:07;101534.81;;;10.77;83.70
24083;BME280;12267;52.798;18.280;2022-10-13T06:44:37;101539.00;;;10.94;81.62
24083;BME280;12267;52.798;18.280;2022-10-13T06:47:03;101528.41;;;11.05;81.35
24083;BME280;12267;52.798;18.280;2022-10-13T06:49:30;101530.22;;;11.17;81.14
24083;BME280;12267;52.798;18.280;2022-10-13T06:51:56;101524.97;;;11.28;81.30
24083;BME280;12267;52.798;18.280;2022-10-13T06:54:23;101524.00;;;11.42;79.16
24083;BME280;12267;52.798;18.280;2022-10-13T06:56:49;101534.53;;;11.56;77.73
24083;BME280;12267;52.798;18.280;2022-10-13T06:59:16;101531.09;;;11.66;78.07
24083;BME280;12267;52.798;18.280;2022-10-13T07:01:46;101523.19;;;11.78;76.84
24083;BME280;12267;52.798;18.280;2022-10-13T07:04:15;101527.63;;;11.90;77.17
24083;BME280;12267;52.798;18.280;2022-10-13T07:06:42;101529.50;;;12.00;75.92
24083;BME280;12267;52.798;18.280;2022-10-13T07:09:09;101526.91;;;12.11;76.24
24083;BME280;12267;52.798;18.280;2022-10-13T07:11:35;101512.13;;;12.18;75.06
24083;BME280;12267;52.798;18.280;2022-10-13T07:14:02;101521.22;;;12.27;74.59
24083;BME280;12267;52.798;18.280;2022-10-13T07:16:30;101518.72;;;12.37;75.09
24083;BME280;12267;52.798;18.280;2022-10-13T07:18:56;101524.97;;;12.48;74.36
24083;BME280;12267;52.798;18.280;2022-10-13T07:21:25;101520.97;;;12.54;74.97
24083;BME280;12267;52.798;18.280;2022-10-13T07:23:53;101529.03;;;12.65;73.68
24083;BME280;12267;52.798;18.280;2022-10-13T07:26:21;101522.59;;;12.79;73.54
24083;BME280;12267;52.798;18.280;2022-10-13T07:28:48;101524.69;;;12.86;73.13
24083;BME280;12267;52.798;18.280;2022-10-13T07:31:17;101521.41;;;12.94;73.67
24083;BME280;12267;52.798;18.280;2022-10-13T07:33:47;101522.16;;;13.07;73.28
24083;BME280;12267;52.798;18.280;2022-10-13T07:36:17;101527.66;;;13.16;72.53
24083;BME280;12267;52.798;18.280;2022-10-13T07:38:43;101508.22;;;13.26;72.04
24083;BME280;12267;52.798;18.280;2022-10-13T07:41:11;101511.50;;;13.29;72.46
24083;BME280;12267;52.798;18.280;2022-10-13T07:43:38;101516.34;;;13.35;72.74
24083;BME280;12267;52.798;18.280;2022-10-13T07:46:06;101517.19;;;13.47;72.84
24083;BME280;12267;52.798;18.280;2022-10-13T07:48:34;101512.78;;;13.57;72.20
24083;BME280;12267;52.798;18.280;2022-10-13T07:51:10;101506.56;;;13.68;72.15
24083;BME280;12267;52.798;18.280;2022-10-13T07:53:38;101508.50;;;13.77;71.47
24083;BME280;12267;52.798;18.280;2022-10-13T07:56:06;101508.00;;;13.83;71.33
24083;BME280;12267;52.798;18.280;2022-10-13T07:58:36;101504.31;;;13.95;71.92
24083;BME280;12267;52.798;18.280;2022-10-13T08:01:04;101499.41;;;14.11;70.64
24083;BME280;12267;52.798;18.280;2022-10-13T08:03:31;101485.94;;;14.22;69.91
24083;BME280;12267;52.798;18.280;2022-10-13T08:05:58;101482.63;;;14.30;70.56
24083;BME280;12267;52.798;18.280;2022-10-13T08:08:25;101483.56;;;14.40;69.67
24083;BME280;12267;52.798;18.280;2022-10-13T08:10:53;101467.53;;;14.49;69.04
24083;BME280;12267;52.798;18.280;2022-10-13T08:13:22;101472.56;;;14.63;69.06
24083;BME280;12267;52.798;18.280;2022-10-13T08:15:48;101475.06;;;14.76;69.40
24083;BME280;12267;52.798;18.280;2022-10-13T08:18:14;101473.13;;;14.88;69.43
24083;BME280;12267;52.798;18.280;2022-10-13T08:20:43;101478.13;;;14.92;67.32
24083;BME280;12267;52.798;18.280;2022-10-13T08:23:11;101465.28;;;14.96;68.64
24083;BME280;12267;52.798;18.280;2022-10-13T08:25:42;101462.03;;;15.02;67.46
24083;BME280;12267;52.798;18.280;2022-10-13T08:28:27;101460.78;;;15.06;67.31
24083;BME280;12267;52.798;18.280;2022-10-13T08:30:55;101472.09;;;15.09;67.05
24083;BME280;12267;52.798;18.280;2022-10-13T08:33:25;101461.66;;;15.16;67.59
24083;BME280;12267;52.798;18.280;2022-10-13T08:35:51;101473.03;;;15.29;66.40
24083;BME280;12267;52.798;18.280;2022-10-13T08:38:19;101456.09;;;15.38;66.84
24083;BME280;12267;52.798;18.280;2022-10-13T08:40:48;101448.81;;;15.50;65.58
24083;BME280;12267;52.798;18.280;2022-10-13T08:43:21;101459.16;;;15.64;66.19
24083;BME280;12267;52.798;18.280;2022-10-13T08:45:50;101454.50;;;15.76;65.36
24083;BME280;12267;52.798;18.280;2022-10-13T08:48:26;101458.91;;;15.86;65.06
24083;BME280;12267;52.798;18.280;2022-10-13T08:50:58;101452.13;;;16.01;63.18
24083;BME280;12267;52.798;18.280;2022-10-13T08:53:36;101457.63;;;16.19;64.39
24083;BME280;12267;52.798;18.280;2022-10-13T08:56:09;101445.19;;;16.28;63.80
24083;BME280;12267;52.798;18.280;2022-10-13T08:58:42;101436.97;;;16.29;61.64
24083;BME280;12267;52.798;18.280;2022-10-13T09:01:16;101448.28;;;16.33;60.38
24083;BME280;12267;52.798;18.280;2022-10-13T09:03:55;101439.78;;;16.37;61.42
24083;BME280;12267;52.798;18.280;2022-10-13T09:06:25;101437.22;;;16.45;61.26
24083;BME280;12267;52.798;18.280;2022-10-13T09:09:00;101441.03;;;16.52;61.11
24083;BME280;12267;52.798;18.280;2022-10-13T09:11:30;101435.25;;;16.57;61.00
24083;BME280;12267;52.798;18.280;2022-10-13T09:14:01;101432.13;;;16.62;60.77
24083;BME280;12267;52.798;18.280;2022-10-13T09:22:13;101421.34;;;16.52;60.07
24083;BME280;12267;52.798;18.280;2022-10-13T09:24:38;101421.50;;;16.50;60.12
24083;BME280;12267;52.798;18.280;2022-10-13T09:27:10;101424.47;;;16.47;60.25
24083;BME280;12267;52.798;18.280;2022-10-13T09:29:42;101415.84;;;16.44;60.79
24083;BME280;12267;52.798;18.280;2022-10-13T09:32:18;101413.00;;;16.45;60.63
24083;BME280;12267;52.798;18.280;2022-10-13T09:34:46;101420.94;;;16.47;60.51
24083;BME280;12267;52.798;18.280;2022-10-13T09:37:22;101420.78;;;16.48;62.16
24083;BME280;12267;52.798;18.280;2022-10-13T09:40:11;101415.13;;;16.51;60.89
24083;BME280;12267;52.798;18.280;2022-10-13T09:42:39;101412.44;;;16.51;61.43
24083;BME280;12267;52.798;18.280;2022-10-13T09:45:15;101413.13;;;16.53;60.83
24083;BME280;12267;52.798;18.280;2022-10-13T09:47:52;101417.94;;;16.60;61.74
24083;BME280;12267;52.798;18.280;2022-10-13T09:50:26;101417.38;;;16.66;61.28
24083;BME280;12267;52.798;18.280;2022-10-13T09:52:53;101403.50;;;16.70;60.69
24083;BME280;12267;52.798;18.280;2022-10-13T09:55:35;101387.50;;;16.69;59.14
24083;BME280;12267;52.798;18.280;2022-10-13T09:58:24;101396.16;;;16.63;58.86
24083;BME280;12267;52.798;18.280;2022-10-13T10:00:53;101390.50;;;16.56;59.61
24083;BME280;12267;52.798;18.280;2022-10-13T10:03:27;101400.84;;;16.51;59.32
24083;BME280;12267;52.798;18.280;2022-10-13T10:06:00;101395.59;;;16.49;60.46
24083;BME280;12267;52.798;18.280;2022-10-13T10:08:39;101392.22;;;16.47;59.57
24083;BME280;12267;52.798;18.280;2022-10-13T10:11:17;101396.19;;;16.43;58.75
24083;BME280;12267;52.798;18.280;2022-10-13T10:13:44;101403.22;;;16.44;60.83
24083;BME280;12267;52.798;18.280;2022-10-13T10:21:52;101377.75;;;16.48;58.19
24083;BME280;12267;52.798;18.280;2022-10-13T10:24:28;101376.63;;;16.51;58.45
24083;BME280;12267;52.798;18.280;2022-10-13T10:45:32;101358.88;;;16.21;58.03
24083;BME280;12267;52.798;18.280;2022-10-13T10:48:11;101361.13;;;16.16;57.28
24083;BME280;12267;52.798;18.280;2022-10-13T10:50:44;101354.63;;;16.09;58.18
24083;BME280;12267;52.798;18.280;2022-10-13T10:56:11;101351.53;;;16.14;58.45
24083;BME280;12267;52.798;18.280;2022-10-13T11:01:47;101335.34;;;16.23;58.78
24083;BME280;12267;52.798;18.280;2022-10-13T11:15:08;101313.63;;;16.07;57.55
24083;BME280;12267;52.798;18.280;2022-10-13T11:17:38;101324.94;;;16.01;58.14
24083;BME280;12267;52.798;18.280;2022-10-13T11:25:45;101311.19;;;16.04;59.46
24083;BME280;12267;52.798;18.280;2022-10-13T11:36:27;101304.63;;;15.89;59.60
24083;BME280;12267;52.798;18.280;2022-10-13T11:44:55;101287.91;;;15.95;58.66
24083;BME280;12267;52.798;18.280;2022-10-13T12:01:11;101265.59;;;15.85;59.05
24083;BME280;12267;52.798;18.280;2022-10-13T12:04:21;101252.16;;;15.85;59.00
24083;BME280;12267;52.798;18.280;2022-10-13T12:07:01;101249.16;;;15.88;59.67
24083;BME280;12267;52.798;18.280;2022-10-13T12:09:53;101262.72;;;15.96;59.31
24083;BME280;12267;52.798;18.280;2022-10-13T12:12:31;101255.06;;;16.01;59.85
24083;BME280;12267;52.798;18.280;2022-10-13T12:19:27;101236.78;;;16.14;57.46
24083;BME280;12267;52.798;18.280;2022-10-13T12:22:12;101228.41;;;16.17;58.14
24083;BME280;12267;52.798;18.280;2022-10-13T12:25:34;101225.31;;;16.12;59.26
24083;BME280;12267;52.798;18.280;2022-10-13T12:28:42;101232.06;;;16.26;59.67
24083;BME280;12267;52.798;18.280;2022-10-13T12:31:23;101222.28;;;16.25;59.29
24083;BME280;12267;52.798;18.280;2022-10-13T12:34:28;101224.06;;;16.34;57.30
24083;BME280;12267;52.798;18.280;2022-10-13T12:37:01;101215.88;;;16.35;57.33
24083;BME280;12267;52.798;18.280;2022-10-13T12:39:30;101191.78;;;16.34;56.90
24083;BME280;12267;52.798;18.280;2022-10-13T12:42:08;101211.88;;;16.39;56.98
24083;BME280;12267;52.798;18.280;2022-10-13T12:44:44;101202.13;;;16.38;57.29
24083;BME280;12267;52.798;18.280;2022-10-13T12:50:49;101195.34;;;16.34;57.15
24083;BME280;12267;52.798;18.280;2022-10-13T12:53:40;101183.06;;;16.32;56.84
24083;BME280;12267;52.798;18.280;2022-10-13T12:56:30;101192.34;;;16.37;57.54
24083;BME280;12267;52.798;18.280;2022-10-13T12:59:00;101185.56;;;16.33;57.15
24083;BME280;12267;52.798;18.280;2022-10-13T13:01:36;101190.69;;;16.36;58.23
24083;BME280;12267;52.798;18.280;2022-10-13T13:06:55;101195.97;;;16.46;57.56
24083;BME280;12267;52.798;18.280;2022-10-13T13:09:24;101186.38;;;16.43;58.14
24083;BME280;12267;52.798;18.280;2022-10-13T13:14:34;101189.44;;;16.48;57.54
24083;BME280;12267;52.798;18.280;2022-10-13T13:19:38;101187.78;;;16.47;58.08
24083;BME280;12267;52.798;18.280;2022-10-13T13:22:08;101188.47;;;16.49;57.71
24083;BME280;12267;52.798;18.280;2022-10-13T13:24:34;101190.00;;;16.52;58.02
24083;BME280;12267;52.798;18.280;2022-10-13T13:27:26;101190.53;;;16.55;58.80
24083;BME280;12267;52.798;18.280;2022-10-13T13:29:54;101187.03;;;16.55;56.90
24083;BME280;12267;52.798;18.280;2022-10-13T13:32:22;101182.63;;;16.54;57.03
24083;BME280;12267;52.798;18.280;2022-10-13T13:34:48;101188.00;;;16.54;57.20
24083;BME280;12267;52.798;18.280;2022-10-13T13:37:22;101182.63;;;16.54;56.86
24083;BME280;12267;52.798;18.280;2022-10-13T13:39:48;101187.16;;;16.53;58.57
24083;BME280;12267;52.798;18.280;2022-10-13T13:42:14;101179.41;;;16.50;58.60
24083;BME280;12267;52.798;18.280;2022-10-13T13:44:42;101173.31;;;16.48;57.41
24083;BME280;12267;52.798;18.280;2022-10-13T13:47:29;101174.16;;;16.49;57.93
24083;BME280;12267;52.798;18.280;2022-10-13T13:49:56;101174.31;;;16.47;57.74
24083;BME280;12267;52.798;18.280;2022-10-13T13:52:23;101171.78;;;16.46;58.72
24083;BME280;12267;52.798;18.280;2022-10-13T13:54:51;101176.31;;;16.45;58.16
24083;BME280;12267;52.798;18.280;2022-10-13T13:57:19;101177.28;;;16.44;56.75
24083;BME280;12267;52.798;18.280;2022-10-13T13:59:45;101171.25;;;16.42;58.48
24083;BME280;12267;52.798;18.280;2022-10-13T14:02:15;101177.59;;;16.41;57.95
24083;BME280;12267;52.798;18.280;2022-10-13T14:04:42;101175.22;;;16.38;58.70
24083;BME280;12267;52.798;18.280;2022-10-13T14:07:08;101162.75;;;16.37;59.10
24083;BME280;12267;52.798;18.280;2022-10-13T14:09:35;101171.00;;;16.36;58.42
24083;BME280;12267;52.798;18.280;2022-10-13T14:12:02;101174.81;;;16.33;58.91
24083;BME280;12267;52.798;18.280;2022-10-13T14:14:31;101166.06;;;16.31;58.63
24083;BME280;12267;52.798;18.280;2022-10-13T14:16:59;101169.06;;;16.28;58.46
24083;BME280;12267;52.798;18.280;2022-10-13T14:19:26;101158.44;;;16.27;58.21
24083;BME280;12267;52.798;18.280;2022-10-13T14:21:52;101163.28;;;16.23;59.65
24083;BME280;12267;52.798;18.280;2022-10-13T14:24:22;101168.97;;;16.20;58.76
24083;BME280;12267;52.798;18.280;2022-10-13T14:26:48;101160.88;;;16.20;58.77
24083;BME280;12267;52.798;18.280;2022-10-13T14:29:14;101162.03;;;16.18;58.82
24083;BME280;12267;52.798;18.280;2022-10-13T14:31:40;101172.25;;;16.14;58.86
24083;BME280;12267;52.798;18.280;2022-10-13T14:34:06;101155.41;;;16.12;58.72
24083;BME280;12267;52.798;18.280;2022-10-13T14:36:34;101158.41;;;16.09;59.86
24083;BME280;12267;52.798;18.280;2022-10-13T14:39:01;101159.56;;;16.06;59.71
24083;BME280;12267;52.798;18.280;2022-10-13T14:41:27;101160.69;;;16.04;60.25
24083;BME280;12267;52.798;18.280;2022-10-13T14:43:54;101151.94;;;16.02;60.29
24083;BME280;12267;52.798;18.280;2022-10-13T14:46:21;101157.59;;;15.99;60.62
24083;BME280;12267;52.798;18.280;2022-10-13T14:48:47;101155.22;;;15.96;60.31
24083;BME280;12267;52.798;18.280;2022-10-13T14:51:15;101154.81;;;15.91;60.59
24083;BME280;12267;52.798;18.280;2022-10-13T14:53:43;101145.34;;;15.87;60.21
24083;BME280;12267;52.798;18.280;2022-10-13T14:56:27;101146.94;;;15.80;61.30
24083;BME280;12267;52.798;18.280;2022-10-13T14:58:57;101143.16;;;15.73;61.81
24083;BME280;12267;52.798;18.280;2022-10-13T15:01:29;101141.50;;;15.62;61.90